Time;durP1;ratioP1;P1;durP2;ratioP2;P2;SDS_P1;SDS_P2;PMS_P1;PMS_P2;Temp;Humidity;BMP_temperature;BMP_pressure;BME280_temperature;BME280_humidity;BME280_pressure;Samples;Min_cycle;Max_cycle;Signal;HPM_P1;HPM_P2
2024/03/28 00:02:07;;;;;;;62.20;9.93;;;11.10;86.90;;;;;;5048020;28;20092;-59
2024/03/28 00:04:33;;;;;;;62.50;8.75;;;11.10;87.00;;;;;;5065816;28;20111;-59
2024/03/28 00:06:58;;;;;;;55.47;8.23;;;11.10;87.00;;;;;;5064644;28;20104;-59
2024/03/28 00:09:24;;;;;;;54.78;8.88;;;11.00;86.90;;;;;;5064744;28;20108;-59
2024/03/28 00:11:51;;;;;;;54.40;9.10;;;11.00;87.00;;;;;;5065872;28;20049;-59
2024/03/28 00:14:17;;;;;;;71.55;9.82;;;11.00;87.10;;;;;;5048050;28;20037;-59
2024/03/28 00:16:42;;;;;;;45.97;8.50;;;11.00;87.10;;;;;;5064166;28;20424;-59
2024/03/28 00:19:08;;;;;;;53.28;8.25;;;10.90;87.10;;;;;;5047539;28;20043;-59
2024/03/28 00:21:35;;;;;;;49.88;9.10;;;10.90;87.10;;;;;;5065676;28;20065;-59
2024/03/28 00:24:00;;;;;;;52.90;8.65;;;10.90;87.00;;;;;;5065515;28;20033;-59
2024/03/28 00:26:26;;;;;;;37.25;7.65;;;10.90;87.00;;;;;;5064002;28;20024;-59
2024/03/28 00:28:52;;;;;;;40.70;7.28;;;10.90;87.20;;;;;;5065230;28;20036;-59
2024/03/28 00:31:17;;;;;;;42.17;8.43;;;10.90;87.10;;;;;;5064027;28;20031;-59
2024/03/28 00:33:43;;;;;;;45.30;8.07;;;10.80;87.10;;;;;;5063962;28;20029;-59
2024/03/28 00:36:09;;;;;;;45.88;7.75;;;10.80;87.10;;;;;;5063900;28;20021;-59
2024/03/28 00:38:34;;;;;;;44.60;7.38;;;10.80;87.10;;;;;;5065250;28;20032;-59
2024/03/28 00:41:00;;;;;;;36.78;6.63;;;10.70;87.20;;;;;;5063704;28;20049;-59
2024/03/28 00:43:26;;;;;;;48.55;6.93;;;10.70;87.10;;;;;;5063900;28;20124;-59
2024/03/28 00:45:52;;;;;;;50.25;7.85;;;10.80;87.20;;;;;;5065151;28;20021;-59
2024/03/28 00:48:18;;;;;;;44.58;7.47;;;10.70;87.20;;;;;;5065228;28;20136;-59
2024/03/28 00:50:57;;;;;;;40.00;6.40;;;10.70;87.20;;;;;;5046962;28;20022;-59
2024/03/28 00:53:22;;;;;;;37.03;5.43;;;10.70;87.30;;;;;;5063683;28;20037;-59
2024/03/28 00:55:48;;;;;;;43.70;7.43;;;10.60;87.20;;;;;;5063565;28;20017;-59
2024/03/28 00:58:14;;;;;;;30.35;5.20;;;10.60;87.30;;;;;;5063533;28;20089;-59
2024/03/28 01:00:40;;;;;;;41.97;7.55;;;10.60;87.30;;;;;;5063732;28;20094;-59
2024/03/28 01:03:06;;;;;;;26.00;5.43;;;10.60;87.30;;;;;;5064940;28;20029;-59
2024/03/28 01:05:32;;;;;;;28.30;5.75;;;10.60;87.40;;;;;;5046669;28;20040;-59
2024/03/28 01:07:58;;;;;;;28.65;5.45;;;10.60;87.40;;;;;;5046945;28;20048;-59
2024/03/28 01:10:23;;;;;;;28.00;5.25;;;10.60;87.40;;;;;;5046859;28;20286;-59
2024/03/28 01:12:49;;;;;;;37.50;6.25;;;10.60;87.30;;;;;;5046586;28;20021;-59
2024/03/28 01:15:17;;;;;;;36.78;5.70;;;10.60;87.30;;;;;;5063250;28;20036;-59
2024/03/28 01:17:42;;;;;;;35.42;6.63;;;10.50;87.30;;;;;;5046917;28;20084;-59
2024/03/28 01:20:08;;;;;;;30.52;5.53;;;10.50;87.40;;;;;;5064467;28;20095;-59
2024/03/28 01:22:34;;;;;;;27.52;5.95;;;10.50;87.40;;;;;;5064548;28;20025;-61
2024/03/28 01:24:59;;;;;;;33.55;6.32;;;10.50;87.40;;;;;;5063167;28;20043;-61
2024/03/28 01:27:25;;;;;;;35.95;5.78;;;10.50;87.40;;;;;;5063129;28;20021;-59
2024/03/28 01:29:54;;;;;;;26.13;4.93;;;10.40;87.40;;;;;;5064447;28;20044;-59
2024/03/28 01:32:19;;;;;;;25.40;5.80;;;10.50;87.50;;;;;;5064423;28;20028;-58
2024/03/28 01:34:48;;;;;;;28.80;5.00;;;10.40;87.40;;;;;;5029998;28;20526;-60
2024/03/28 01:37:14;;;;;;;32.33;6.45;;;10.40;87.50;;;;;;5064528;28;20064;-59
2024/03/28 01:39:40;;;;;;;24.98;5.22;;;10.40;87.50;;;;;;5063837;28;20044;-59
2024/03/28 01:42:05;;;;;;;25.52;5.13;;;10.40;87.50;;;;;;5062923;28;20360;-59
2024/03/28 01:44:31;;;;;;;25.55;4.35;;;10.40;87.50;;;;;;5064405;28;20025;-59
2024/03/28 01:46:57;;;;;;;23.20;4.78;;;10.30;87.50;;;;;;5046259;28;20059;-60
2024/03/28 01:49:25;;;;;;;24.33;4.32;;;10.30;87.60;;;;;;5029545;28;20040;-59
2024/03/28 01:51:50;;;;;;;32.60;5.22;;;10.30;87.60;;;;;;5062602;28;20072;-59
2024/03/28 01:54:16;;;;;;;23.08;4.90;;;10.30;87.70;;;;;;5046194;28;20029;-59
2024/03/28 01:56:43;;;;;;;20.65;4.05;;;10.30;87.60;;;;;;5046166;28;20025;-59
2024/03/28 01:59:08;;;;;;;18.05;4.25;;;10.20;87.70;;;;;;5046099;28;20052;-59
2024/03/28 02:01:34;;;;;;;20.10;3.83;;;10.20;87.70;;;;;;5046032;28;20044;-59
2024/03/28 02:03:59;;;;;;;19.88;4.35;;;10.20;87.70;;;;;;5045910;28;20095;-59
2024/03/28 02:06:25;;;;;;;18.00;3.95;;;10.20;87.70;;;;;;5046002;28;20455;-59
2024/03/28 02:08:50;;;;;;;20.67;4.63;;;10.20;87.70;;;;;;5045839;28;20033;-59
2024/03/28 02:11:19;;;;;;;28.00;4.50;;;10.20;87.60;;;;;;5062590;28;20032;-59
2024/03/28 02:13:45;;;;;;;23.13;4.00;;;10.10;87.60;;;;;;5046128;28;20044;-59
2024/03/28 02:16:11;;;;;;;15.30;4.00;;;10.10;87.70;;;;;;5062844;28;20216;-58
2024/03/28 02:18:36;;;;;;;16.08;3.50;;;10.10;87.70;;;;;;5062426;28;20093;-59
2024/03/28 02:21:02;;;;;;;15.85;3.08;;;10.10;87.70;;;;;;5063749;28;20021;-59
2024/03/28 02:23:28;;;;;;;24.48;3.90;;;10.10;87.80;;;;;;5063695;28;20037;-59
2024/03/28 02:25:53;;;;;;;18.60;3.97;;;10.00;87.70;;;;;;5062148;28;20029;-59
2024/03/28 02:28:19;;;;;;;12.95;3.22;;;10.00;87.80;;;;;;5062320;28;20025;-59
2024/03/28 02:30:44;;;;;;;19.15;3.72;;;10.00;87.80;;;;;;5045439;28;20115;-59
2024/03/28 02:33:10;;;;;;;23.10;3.92;;;10.00;87.80;;;;;;5063807;28;20043;-59
2024/03/28 02:35:36;;;;;;;15.77;3.42;;;10.00;87.80;;;;;;5063550;28;20028;-60
2024/03/28 02:38:01;;;;;;;14.68;3.08;;;9.90;87.80;;;;;;5062271;28;20086;-59
2024/03/28 02:40:27;;;;;;;16.67;3.20;;;9.90;87.90;;;;;;5045557;28;20040;-59
2024/03/28 02:42:53;;;;;;;22.48;3.40;;;9.90;87.90;;;;;;5062307;28;20033;-59
2024/03/28 02:45:19;;;;;;;17.25;3.50;;;9.90;87.90;;;;;;5063661;28;20456;-59
2024/03/28 02:47:45;;;;;;;11.13;2.80;;;9.90;88.00;;;;;;5062153;28;20025;-59
2024/03/28 02:50:10;;;;;;;11.85;2.97;;;9.90;88.00;;;;;;5029059;28;20056;-59
2024/03/28 02:52:36;;;;;;;11.35;2.65;;;9.80;88.00;;;;;;5048632;28;20032;-59
2024/03/28 02:55:02;;;;;;;15.32;3.53;;;9.80;88.10;;;;;;5067327;28;20052;-59
2024/03/28 02:57:28;;;;;;;22.45;4.15;;;9.80;88.00;;;;;;5065756;28;20032;-59
2024/03/28 02:59:53;;;;;;;11.68;2.80;;;9.80;88.00;;;;;;5065858;28;20033;-59
2024/03/28 03:02:19;;;;;;;18.67;3.10;;;9.70;87.90;;;;;;5065696;28;20115;-59
2024/03/28 03:04:44;;;;;;;12.77;3.10;;;9.80;88.00;;;;;;5049015;28;20029;-59
2024/03/28 03:07:10;;;;;;;13.85;2.88;;;9.70;88.20;;;;;;5049076;28;20032;-59
2024/03/28 03:09:36;;;;;;;17.42;3.10;;;9.70;88.10;;;;;;5066743;28;20041;-59
2024/03/28 03:12:01;;;;;;;12.63;2.90;;;9.70;88.20;;;;;;5065566;28;20090;-59
2024/03/28 03:14:28;;;;;;;12.10;2.90;;;9.70;88.20;;;;;;5065547;28;20033;-59
2024/03/28 03:16:54;;;;;;;8.30;2.90;;;9.70;88.20;;;;;;5048970;28;20085;-59
2024/03/28 03:19:19;;;;;;;12.65;3.08;;;9.70;88.10;;;;;;5065517;28;20048;-59
2024/03/28 03:21:49;;;;;;;12.23;2.75;;;9.60;88.10;;;;;;5048766;28;20037;-59
2024/03/28 03:24:15;;;;;;;12.05;3.08;;;9.60;88.10;;;;;;5049125;28;20025;-59
2024/03/28 03:26:49;;;;;;;18.27;3.03;;;9.60;88.10;;;;;;5065434;28;20108;-59
2024/03/28 03:34:45;;;;;;;15.03;2.70;;;9.50;88.20;;;;;;5065413;28;20047;-59
2024/03/28 03:37:18;;;;;;;9.13;1.95;;;9.50;88.20;;;;;;5065175;28;20283;-59
2024/03/28 03:39:44;;;;;;;6.93;2.08;;;9.50;88.30;;;;;;5065160;28;20115;-59
2024/03/28 03:42:10;;;;;;;11.38;2.33;;;9.50;88.20;;;;;;5064953;28;20063;-59
2024/03/28 03:44:36;;;;;;;18.25;2.78;;;9.50;88.90;;;;;;5048497;28;20036;-59
2024/03/28 03:47:02;;;;;;;15.50;2.30;;;9.40;88.30;;;;;;5048425;28;20029;-59
2024/03/28 03:49:28;;;;;;;15.23;2.55;;;9.40;88.30;;;;;;5066375;28;20116;-59
2024/03/28 03:51:53;;;;;;;11.52;2.50;;;9.40;88.40;;;;;;5065061;28;20436;-59
2024/03/28 03:54:19;;;;;;;8.48;1.85;;;9.40;88.40;;;;;;5048021;28;20033;-59
2024/03/28 03:56:45;;;;;;;6.80;1.83;;;9.40;88.30;;;;;;5048128;28;20316;-59
2024/03/28 03:59:10;;;;;;;7.88;2.60;;;9.40;88.30;;;;;;5048160;28;20048;-59
2024/03/28 04:01:36;;;;;;;10.32;2.28;;;9.40;88.30;;;;;;5065997;28;20033;-59
2024/03/28 04:04:03;;;;;;;10.95;2.28;;;9.40;88.40;;;;;;5047266;28;20033;-59
2024/03/28 04:06:29;;;;;;;10.95;2.40;;;9.40;88.40;;;;;;5064750;28;20099;-59
2024/03/28 04:08:55;;;;;;;7.38;2.17;;;9.30;88.20;;;;;;5047897;28;20051;-59
2024/03/28 04:11:21;;;;;;;6.88;2.13;;;9.40;88.40;;;;;;5066019;28;20029;-59
2024/03/28 04:13:46;;;;;;;10.18;2.17;;;9.30;88.30;;;;;;5047964;28;20108;-59
2024/03/28 04:16:12;;;;;;;10.48;2.05;;;9.30;88.30;;;;;;5047860;28;20044;-59
2024/03/28 04:18:37;;;;;;;7.10;2.22;;;9.30;88.40;;;;;;5031170;28;20025;-59
2024/03/28 04:21:03;;;;;;;5.22;2.10;;;9.30;88.50;;;;;;5064302;28;20029;-58
2024/03/28 04:23:29;;;;;;;3.85;1.67;;;9.30;88.40;;;;;;5064392;28;20475;-59
2024/03/28 04:25:55;;;;;;;8.40;1.95;;;9.20;88.50;;;;;;5065519;28;20417;-59
2024/03/28 04:28:21;;;;;;;9.23;2.08;;;9.20;88.50;;;;;;5047825;28;20060;-59
2024/03/28 04:30:46;;;;;;;8.85;2.35;;;9.20;88.50;;;;;;5064222;28;20021;-59
2024/03/28 04:33:12;;;;;;;6.72;1.60;;;9.20;88.50;;;;;;5064150;28;20116;-59
2024/03/28 04:35:38;;;;;;;8.65;1.98;;;9.20;88.60;;;;;;5047364;28;20029;-59
2024/03/28 04:38:04;;;;;;;6.45;1.83;;;9.10;88.50;;;;;;5063887;28;20036;-59
2024/03/28 04:40:30;;;;;;;6.00;1.70;;;9.10;88.70;;;;;;5063731;28;20130;-59
2024/03/28 04:42:56;;;;;;;8.43;1.50;;;9.10;88.60;;;;;;5063928;28;20025;-59
2024/03/28 04:45:22;;;;;;;4.03;1.38;;;9.10;88.60;;;;;;5063816;28;20039;-59
2024/03/28 04:47:48;;;;;;;7.53;1.88;;;9.10;88.60;;;;;;5063765;28;20044;-59
2024/03/28 04:50:14;;;;;;;6.22;2.28;;;9.10;88.60;;;;;;5047531;28;20041;-59
2024/03/28 04:52:40;;;;;;;4.53;1.83;;;9.10;88.70;;;;;;5063714;28;20048;-59
2024/03/28 04:55:06;;;;;;;5.80;1.80;;;9.10;88.80;;;;;;5047161;28;20032;-59
2024/03/28 04:57:32;;;;;;;5.00;1.90;;;9.10;88.90;;;;;;5065222;28;20039;-59
2024/03/28 04:59:58;;;;;;;4.35;1.77;;;9.10;88.90;;;;;;5063637;28;20089;-59
2024/03/28 05:02:23;;;;;;;8.23;2.08;;;9.00;88.80;;;;;;5064924;28;20116;-59
2024/03/28 05:04:49;;;;;;;5.15;1.90;;;9.00;88.90;;;;;;5064030;28;20551;-59
2024/03/28 05:07:15;;;;;;;2.95;1.45;;;9.10;88.90;;;;;;5065431;28;20165;-59
2024/03/28 05:09:40;;;;;;;6.97;1.42;;;9.00;88.90;;;;;;5065146;28;20036;-59
2024/03/28 05:12:07;;;;;;;7.05;1.90;;;9.00;89.00;;;;;;5065954;28;20029;-59
2024/03/28 05:14:32;;;;;;;6.95;1.80;;;9.00;89.00;;;;;;5063171;28;20106;-59
2024/03/28 05:16:59;;;;;;;8.90;2.05;;;9.00;89.00;;;;;;5063209;28;20032;-59
2024/03/28 05:19:25;;;;;;;12.40;2.28;;;8.90;89.00;;;;;;5064529;28;20025;-59
2024/03/28 05:21:51;;;;;;;13.57;2.90;;;8.90;89.10;;;;;;5063247;28;20089;-59
2024/03/28 05:24:17;;;;;;;13.68;2.30;;;8.90;89.10;;;;;;5063099;28;20547;-59
2024/03/28 05:26:42;;;;;;;8.20;2.72;;;8.90;89.20;;;;;;5063283;28;20039;-59
2024/03/28 05:29:08;;;;;;;13.73;2.38;;;8.90;89.40;;;;;;5063349;28;20052;-59
2024/03/28 05:31:34;;;;;;;9.85;2.45;;;8.90;89.40;;;;;;5063119;28;20452;-59
2024/03/28 05:33:59;;;;;;;11.57;2.53;;;8.90;89.40;;;;;;5062872;28;20460;-59
2024/03/28 05:36:25;;;;;;;11.02;2.53;;;8.90;89.50;;;;;;5046300;28;20037;-59
2024/03/28 05:38:51;;;;;;;10.88;2.28;;;8.90;89.50;;;;;;5064123;28;20112;-59
2024/03/28 05:41:16;;;;;;;15.25;2.95;;;9.00;89.50;;;;;;5046083;28;20434;-59
2024/03/28 05:43:43;;;;;;;15.90;2.92;;;8.90;89.40;;;;;;5029984;28;20045;-59
2024/03/28 05:46:09;;;;;;;19.98;3.00;;;8.90;89.50;;;;;;5046190;28;20047;-59
2024/03/28 05:48:35;;;;;;;15.25;3.65;;;8.90;89.50;;;;;;5062816;28;20044;-59
2024/03/28 05:51:01;;;;;;;24.52;4.03;;;8.90;89.60;;;;;;5062898;28;20029;-59
2024/03/28 05:53:26;;;;;;;16.30;3.70;;;8.90;89.60;;;;;;5046122;28;20060;-59
2024/03/28 05:55:52;;;;;;;23.88;3.97;;;8.90;89.60;;;;;;5062847;28;20029;-59
2024/03/28 05:58:17;;;;;;;32.22;4.75;;;8.90;89.60;;;;;;5062745;28;20083;-59
2024/03/28 06:00:43;;;;;;;32.67;4.93;;;8.90;89.80;;;;;;5062703;28;20032;-59
2024/03/28 06:03:09;;;;;;;27.00;5.30;;;8.90;89.80;;;;;;5061008;28;20044;-60
2024/03/28 06:05:34;;;;;;;23.25;5.35;;;9.00;89.90;;;;;;5048209;28;20028;-59
2024/03/28 06:08:00;;;;;;;34.63;5.55;;;9.00;90.00;;;;;;5062446;28;20039;-59
2024/03/28 06:10:26;;;;;;;45.00;7.35;;;9.00;90.00;;;;;;5061925;28;20021;-59
2024/03/28 06:12:52;;;;;;;53.95;8.90;;;9.00;90.20;;;;;;5062090;28;20037;-59
2024/03/28 06:15:17;;;;;;;65.68;8.45;;;9.00;90.20;;;;;;5062412;28;20032;-59
2024/03/28 06:17:43;;;;;;;77.47;9.55;;;9.00;90.20;;;;;;5062546;28;20036;-59
2024/03/28 06:20:10;;;;;;;112.30;13.52;;;9.00;90.30;;;;;;5062494;28;20140;-59
2024/03/28 06:22:36;;;;;;;94.05;12.13;;;9.00;90.30;;;;;;5061921;28;20029;-59
2024/03/28 06:25:01;;;;;;;167.10;21.42;;;9.00;90.30;;;;;;5062144;28;20035;-59
2024/03/28 06:27:27;;;;;;;115.53;15.50;;;9.00;90.40;;;;;;5065554;28;20101;-59
2024/03/28 06:29:53;;;;;;;193.40;22.73;;;9.00;90.50;;;;;;5066905;28;20094;-59
2024/03/28 06:32:25;;;;;;;223.15;24.45;;;9.00;90.60;;;;;;5068375;28;20435;-59
2024/03/28 06:34:59;;;;;;;124.93;15.13;;;9.00;90.60;;;;;;5066569;28;20033;-58
2024/03/28 06:37:25;;;;;;;99.00;12.23;;;9.10;90.60;;;;;;5066568;28;20137;-59
2024/03/28 06:39:51;;;;;;;73.45;10.05;;;9.00;90.60;;;;;;5067422;28;20128;-59
2024/03/28 06:42:17;;;;;;;74.03;9.98;;;9.00;90.60;;;;;;5065963;28;20048;-59
2024/03/28 06:44:48;;;;;;;68.88;10.68;;;9.00;90.60;;;;;;5066132;28;20483;-59
2024/03/28 06:47:13;;;;;;;83.75;11.88;;;9.00;90.70;;;;;;5066272;28;20029;-59
2024/03/28 06:49:39;;;;;;;71.38;11.40;;;9.00;90.70;;;;;;5067498;28;20075;-58
2024/03/28 06:52:05;;;;;;;74.28;11.10;;;9.00;90.80;;;;;;5066246;28;20037;-59
2024/03/28 06:54:31;;;;;;;55.22;11.18;;;9.00;90.80;;;;;;5066472;28;20481;-59
2024/03/28 06:56:57;;;;;;;69.32;11.02;;;8.90;90.80;;;;;;5066226;28;20028;-59
2024/03/28 06:59:23;;;;;;;70.22;11.70;;;9.00;90.90;;;;;;5066091;28;20059;-59
2024/03/28 07:01:49;;;;;;;68.07;10.18;;;8.90;90.90;;;;;;5066198;28;20051;-59
2024/03/28 07:04:15;;;;;;;88.40;13.35;;;8.90;91.00;;;;;;5066167;28;20036;-59
2024/03/28 07:06:41;;;;;;;56.17;11.07;;;8.90;91.00;;;;;;5067586;28;20021;-59
2024/03/28 07:09:07;;;;;;;61.35;10.55;;;8.90;91.00;;;;;;5049383;28;20033;-59
2024/03/28 07:11:33;;;;;;;48.00;8.98;;;9.00;91.10;;;;;;5067077;28;20025;-59
2024/03/28 07:13:59;;;;;;;44.28;8.05;;;8.90;91.10;;;;;;5049498;28;20071;-59
2024/03/28 07:16:25;;;;;;;48.17;8.20;;;8.90;91.00;;;;;;5065867;28;20028;-59
2024/03/28 07:18:52;;;;;;;37.63;8.30;;;8.90;91.30;;;;;;5065947;28;20029;-59
2024/03/28 07:21:17;;;;;;;35.63;8.57;;;8.90;91.10;;;;;;5065538;28;20100;-59
2024/03/28 07:23:43;;;;;;;33.38;7.63;;;8.90;91.20;;;;;;5065585;28;20106;-59
2024/03/28 07:26:09;;;;;;;42.13;7.97;;;8.90;91.30;;;;;;5065194;28;20078;-59
2024/03/28 07:28:34;;;;;;;29.23;6.65;;;8.90;91.20;;;;;;5065280;28;20055;-59
2024/03/28 07:31:00;;;;;;;30.13;6.57;;;8.90;91.30;;;;;;5065312;28;20025;-59
2024/03/28 07:33:26;;;;;;;25.65;5.88;;;8.90;91.30;;;;;;5066714;28;20055;-59
2024/03/28 07:35:51;;;;;;;33.28;7.30;;;8.80;91.70;;;;;;5065397;28;20400;-59
2024/03/28 07:38:17;;;;;;;24.40;5.78;;;8.80;91.40;;;;;;5047390;28;20033;-59
2024/03/28 07:40:47;;;;;;;22.05;5.75;;;8.90;91.70;;;;;;5064311;28;20411;-59
2024/03/28 07:43:13;;;;;;;22.60;4.90;;;8.80;91.40;;;;;;5065503;28;20112;-59
2024/03/28 07:45:39;;;;;;;25.33;6.05;;;8.80;91.60;;;;;;5048893;28;20029;-59
2024/03/28 07:48:06;;;;;;;31.50;5.72;;;8.90;91.70;;;;;;5066653;28;20031;-59
2024/03/28 07:50:32;;;;;;;27.60;5.38;;;8.80;91.80;;;;;;5066791;28;20021;-59
2024/03/28 07:52:57;;;;;;;22.38;4.57;;;8.80;91.90;;;;;;5065254;28;20029;-59
2024/03/28 07:55:23;;;;;;;32.80;5.78;;;8.80;91.90;;;;;;5064923;28;20456;-59
2024/03/28 07:57:50;;;;;;;33.28;6.25;;;8.80;92.00;;;;;;5061175;28;20025;-59
2024/03/28 08:00:16;;;;;;;24.40;6.13;;;8.80;92.10;;;;;;5053813;28;20033;-59
2024/03/28 08:02:43;;;;;;;60.40;8.80;;;8.80;92.40;;;;;;5055207;28;20026;-60
2024/03/28 08:05:10;;;;;;;27.42;5.47;;;8.80;92.10;;;;;;5044486;28;20034;-60
2024/03/28 08:07:36;;;;;;;45.38;8.00;;;8.80;92.20;;;;;;5046322;28;20029;-60
2024/03/28 08:10:02;;;;;;;45.72;8.25;;;8.80;92.20;;;;;;5044657;28;20065;-60
2024/03/28 08:12:28;;;;;;;54.03;10.25;;;8.80;92.20;;;;;;5052863;28;20029;-60
2024/03/28 08:14:54;;;;;;;69.55;10.00;;;8.80;92.20;;;;;;5046555;28;20377;-60
2024/03/28 08:17:19;;;;;;;57.45;8.35;;;8.80;92.30;;;;;;5056178;28;20063;-60
2024/03/28 08:19:45;;;;;;;48.60;7.35;;;8.90;92.40;;;;;;5066449;28;20046;-60
2024/03/28 08:22:11;;;;;;;35.20;6.20;;;8.80;92.40;;;;;;5060736;28;20112;-60
2024/03/28 08:24:37;;;;;;;38.63;6.25;;;8.80;92.40;;;;;;5064064;28;20075;-60
2024/03/28 08:27:04;;;;;;;44.97;6.13;;;8.90;92.40;;;;;;5047395;28;20028;-60
2024/03/28 08:29:29;;;;;;;36.35;5.38;;;8.90;92.40;;;;;;5057434;28;20049;-60
2024/03/28 08:31:56;;;;;;;31.55;6.20;;;8.90;92.50;;;;;;5053287;28;20111;-60
2024/03/28 08:34:22;;;;;;;29.80;4.35;;;8.90;92.50;;;;;;5062459;28;20060;-60
2024/03/28 08:36:47;;;;;;;28.90;4.57;;;8.90;92.50;;;;;;5061467;28;20456;-60
2024/03/28 08:39:13;;;;;;;30.08;4.53;;;8.90;92.60;;;;;;5061099;28;20033;-60
2024/03/28 08:41:40;;;;;;;27.60;3.85;;;8.90;92.60;;;;;;5061481;28;20025;-60
2024/03/28 08:44:08;;;;;;;28.77;4.97;;;8.90;92.60;;;;;;5063341;28;20067;-61
2024/03/28 08:46:34;;;;;;;53.63;5.68;;;8.90;92.60;;;;;;5061312;28;20028;-61
2024/03/28 08:49:00;;;;;;;271.67;24.15;;;8.90;92.60;;;;;;5045171;28;20046;-58
2024/03/28 08:51:26;;;;;;;385.70;35.97;;;8.90;92.70;;;;;;5046605;28;20031;-59
2024/03/28 08:53:52;;;;;;;148.77;15.77;;;8.90;92.70;;;;;;5065198;28;20040;-60
2024/03/28 08:56:20;;;;;;;386.52;33.72;;;9.00;92.70;;;;;;5062873;28;20044;-59
2024/03/28 08:58:46;;;;;;;226.98;23.17;;;9.00;92.60;;;;;;5063416;28;20036;-60
2024/03/28 09:01:13;;;;;;;161.88;17.00;;;9.10;92.80;;;;;;5062535;28;20025;-60
2024/03/28 09:03:39;;;;;;;207.18;17.98;;;9.10;92.60;;;;;;5065019;28;20060;-60
2024/03/28 09:06:09;;;;;;;140.13;14.13;;;9.20;92.50;;;;;;5062764;28;20024;-61
2024/03/28 09:08:38;;;;;;;215.10;19.13;;;9.20;92.40;;;;;;5062403;28;20058;-60
2024/03/28 09:11:08;;;;;;;101.20;12.43;;;9.10;92.40;;;;;;5062851;28;20040;-60
2024/03/28 09:13:34;;;;;;;116.28;13.30;;;9.10;92.50;;;;;;5062710;28;20033;-61
2024/03/28 09:16:00;;;;;;;91.13;10.82;;;9.10;92.50;;;;;;5062537;28;20047;-60
2024/03/28 09:18:25;;;;;;;81.95;9.43;;;9.20;92.50;;;;;;5062461;28;20101;-61
2024/03/28 09:20:51;;;;;;;76.30;9.32;;;9.10;92.40;;;;;;5064050;28;20047;-60
2024/03/28 09:23:18;;;;;;;82.03;9.35;;;9.10;92.50;;;;;;5046431;28;20439;-60
2024/03/28 09:25:43;;;;;;;84.38;7.85;;;9.20;92.60;;;;;;5045814;28;20058;-60
2024/03/28 09:28:09;;;;;;;90.25;10.43;;;9.20;92.50;;;;;;5062600;28;20029;-60
2024/03/28 09:30:34;;;;;;;107.40;11.02;;;9.20;92.50;;;;;;5041341;28;20447;-60
2024/03/28 09:33:00;;;;;;;80.45;10.95;;;9.20;92.50;;;;;;5055180;28;20062;-60
2024/03/28 09:35:26;;;;;;;79.95;10.90;;;9.20;92.60;;;;;;5062251;28;20110;-60
2024/03/28 09:37:51;;;;;;;74.80;9.60;;;9.30;92.50;;;;;;5061884;28;20048;-60
2024/03/28 09:40:17;;;;;;;69.40;9.80;;;9.30;92.40;;;;;;5060864;28;20052;-60
2024/03/28 09:42:45;;;;;;;64.68;8.38;;;9.30;92.40;;;;;;5062223;28;20033;-60
2024/03/28 09:45:12;;;;;;;73.25;9.82;;;9.30;92.30;;;;;;5045877;28;20029;-60
2024/03/28 09:47:38;;;;;;;106.18;12.38;;;9.30;92.30;;;;;;5063661;28;20028;-60
2024/03/28 09:50:08;;;;;;;74.55;8.55;;;9.30;92.40;;;;;;5062249;28;20037;-60
2024/03/28 09:52:33;;;;;;;106.53;11.45;;;9.40;92.40;;;;;;5064048;28;20028;-60
2024/03/28 09:54:59;;;;;;;125.65;13.50;;;9.40;92.30;;;;;;5063071;28;20043;-60
2024/03/28 09:57:24;;;;;;;115.57;10.77;;;9.40;92.40;;;;;;5045919;28;20526;-61
2024/03/28 09:59:50;;;;;;;197.02;18.27;;;9.40;92.40;;;;;;5063030;28;20039;-61
2024/03/28 10:02:19;;;;;;;142.32;15.15;;;9.50;92.40;;;;;;5040140;28;20119;-61
2024/03/28 10:04:48;;;;;;;182.93;20.15;;;9.50;92.40;;;;;;5059539;28;20033;-61
2024/03/28 10:07:16;;;;;;;115.10;14.13;;;9.50;92.30;;;;;;5041858;28;20105;-60
2024/03/28 10:09:41;;;;;;;97.97;12.93;;;9.50;92.40;;;;;;5043849;28;20518;-61
2024/03/28 10:12:14;;;;;;;97.10;11.95;;;9.50;92.30;;;;;;5028968;28;20048;-61
2024/03/28 10:14:42;;;;;;;105.55;12.50;;;9.60;92.30;;;;;;5045885;28;20035;-60
2024/03/28 10:17:10;;;;;;;80.05;10.07;;;9.60;92.20;;;;;;5063399;28;20104;-60
2024/03/28 10:19:39;;;;;;;100.60;10.32;;;9.60;92.30;;;;;;5046230;28;20025;-61
2024/03/28 10:22:10;;;;;;;108.10;13.02;;;9.70;92.10;;;;;;5063878;28;20026;-61
2024/03/28 10:24:39;;;;;;;92.40;11.95;;;9.70;92.20;;;;;;5063363;28;20056;-60
2024/03/28 10:27:20;;;;;;;113.55;11.98;;;9.70;92.20;;;;;;5045368;28;20035;-60
2024/03/28 10:29:55;;;;;;;102.82;12.68;;;9.70;92.10;;;;;;5063663;28;20025;-60
2024/03/28 10:32:22;;;;;;;;;;;9.80;92.00;;;;;;5060109;28;20029;-61
2024/03/28 10:34:51;;;;;;;;;;;9.80;92.00;;;;;;5045277;28;19980;-60
2024/03/28 10:37:22;;;;;;;137.45;15.82;;;9.80;92.00;;;;;;5053434;28;20315;-60
2024/03/28 10:39:48;;;;;;;100.68;14.13;;;9.80;92.10;;;;;;5044850;28;20128;-60
2024/03/28 10:42:14;;;;;;;100.18;12.05;;;9.80;92.10;;;;;;5061269;28;20070;-60
2024/03/28 10:44:44;;;;;;;150.65;16.52;;;9.90;92.00;;;;;;5062281;28;20092;-61
2024/03/28 10:47:15;;;;;;;113.70;12.35;;;9.90;92.10;;;;;;5063761;28;20028;-60
2024/03/28 10:50:09;;;;;;;112.90;14.20;;;9.90;91.90;;;;;;5056150;28;20045;-61
2024/03/28 10:52:42;;;;;;;125.68;12.60;;;10.00;91.90;;;;;;5033547;28;20072;-60
2024/03/28 10:55:08;;;;;;;149.50;17.63;;;9.90;91.90;;;;;;5042497;28;20081;-60
2024/03/28 10:57:34;;;;;;;131.02;13.32;;;10.00;91.90;;;;;;5045434;28;20025;-60
2024/03/28 10:59:59;;;;;;;142.25;17.25;;;10.00;91.90;;;;;;5053030;28;20037;-60
2024/03/28 11:02:27;;;;;;;143.68;15.65;;;10.10;91.80;;;;;;5060980;28;20104;-61
2024/03/28 11:04:53;;;;;;;144.43;17.50;;;10.10;91.80;;;;;;5061215;28;20029;-60
2024/03/28 11:07:20;;;;;;;108.35;13.18;;;10.10;91.80;;;;;;5044617;28;20079;-60
2024/03/28 11:09:46;;;;;;;105.70;14.80;;;10.10;91.70;;;;;;5043795;28;20368;-60
2024/03/28 11:12:11;;;;;;;95.70;11.93;;;10.10;91.70;;;;;;5048488;28;20030;-60
2024/03/28 11:14:37;;;;;;;90.32;11.10;;;10.20;91.80;;;;;;5057635;28;20051;-60
2024/03/28 11:17:05;;;;;;;74.82;10.07;;;10.20;91.70;;;;;;5061756;28;20044;-61
2024/03/28 11:19:31;;;;;;;63.47;9.45;;;10.20;91.50;;;;;;5065779;28;20059;-60
2024/03/28 11:21:57;;;;;;;105.35;11.18;;;10.20;91.60;;;;;;5065035;28;20457;-61
2024/03/28 11:24:28;;;;;;;78.15;10.88;;;10.30;91.60;;;;;;5049062;28;20447;-60
2024/03/28 11:26:54;;;;;;;99.07;10.48;;;10.30;91.60;;;;;;5065286;28;20041;-60
2024/03/28 11:29:26;;;;;;;116.45;12.23;;;10.40;91.60;;;;;;5064996;28;20036;-60
2024/03/28 11:31:59;;;;;;;113.13;15.32;;;10.40;91.80;;;;;;5047404;28;20041;-60
2024/03/28 11:34:25;;;;;;;98.03;12.05;;;10.40;91.70;;;;;;5056313;28;20030;-60
2024/03/28 11:36:52;;;;;;;70.93;9.45;;;10.50;91.70;;;;;;5028838;28;20190;-61
2024/03/28 11:39:18;;;;;;;100.05;11.98;;;10.50;91.60;;;;;;5057616;28;20043;-60
2024/03/28 11:41:44;;;;;;;97.88;13.93;;;10.50;91.60;;;;;;5064766;28;20104;-60
2024/03/28 11:44:09;;;;;;;125.53;12.60;;;10.60;91.60;;;;;;5063951;28;20045;-61
2024/03/28 11:46:35;;;;;;;149.40;14.40;;;10.60;91.50;;;;;;5064570;28;20349;-60
2024/03/28 11:49:01;;;;;;;107.95;11.82;;;10.70;91.50;;;;;;5065047;28;20083;-60
2024/03/28 11:51:27;;;;;;;139.23;13.88;;;10.70;91.50;;;;;;5063391;28;20072;-60
2024/03/28 11:53:53;;;;;;;81.68;10.93;;;10.70;91.50;;;;;;5044648;28;20463;-60
2024/03/28 11:56:21;;;;;;;116.15;12.23;;;10.70;91.30;;;;;;5061191;28;20536;-61
2024/03/28 11:58:46;;;;;;;96.25;11.90;;;10.80;91.40;;;;;;5060345;28;20033;-60
2024/03/28 12:01:12;;;;;;;103.20;11.40;;;10.90;91.40;;;;;;5064950;28;20028;-60
2024/03/28 12:03:38;;;;;;;119.82;13.00;;;10.90;91.30;;;;;;5029031;28;20468;-61
2024/03/28 12:06:04;;;;;;;168.38;16.23;;;10.90;91.30;;;;;;5073748;28;20042;-60
2024/03/28 12:08:30;;;;;;;147.90;14.52;;;11.00;91.30;;;;;;5056506;28;20038;-61
2024/03/28 12:11:00;;;;;;;109.35;12.57;;;11.00;91.30;;;;;;5046998;28;20049;-60
2024/03/28 12:13:25;;;;;;;117.10;13.70;;;11.00;91.30;;;;;;5062236;28;20127;-60
2024/03/28 12:15:58;;;;;;;103.90;11.13;;;11.10;91.40;;;;;;5061885;28;20079;-60
2024/03/28 12:18:25;;;;;;;93.25;11.05;;;11.10;91.30;;;;;;5041155;28;20045;-60
2024/03/28 12:21:06;;;;;;;78.13;10.07;;;11.20;91.30;;;;;;5059365;28;20029;-60
2024/03/28 12:23:33;;;;;;;284.30;27.60;;;11.20;91.30;;;;;;5063250;28;20033;-60
2024/03/28 12:25:59;;;;;;;219.85;20.60;;;11.20;91.30;;;;;;5065123;28;20052;-60
2024/03/28 12:28:25;;;;;;;125.00;12.60;;;11.30;91.40;;;;;;5053267;28;20049;-60
2024/03/28 12:30:51;;;;;;;133.77;12.05;;;11.30;91.60;;;;;;5059857;28;20045;-60
2024/03/28 12:33:16;;;;;;;96.47;12.23;;;11.40;91.20;;;;;;5043347;28;20483;-61
2024/03/28 12:35:43;;;;;;;111.35;12.68;;;11.40;91.20;;;;;;5064033;28;20037;-60
2024/03/28 12:38:13;;;;;;;102.75;12.40;;;11.40;91.30;;;;;;5058980;28;20465;-60
2024/03/28 12:40:47;;;;;;;91.20;10.50;;;11.40;91.30;;;;;;5063120;28;20033;-60
2024/03/28 12:43:16;;;;;;;106.45;10.63;;;11.50;91.20;;;;;;5043979;28;20080;-61